createdAt,value
2023-01-18T00:01:19.936Z,93951.34
2023-01-18T00:03:46.440Z,93942.34
2023-01-18T00:06:12.792Z,93943.94
2023-01-18T00:08:39.607Z,93942.09
2023-01-18T00:11:07.436Z,93952.34
2023-01-18T00:13:33.897Z,93938.41
2023-01-18T00:16:04.054Z,93942.59
2023-01-18T00:18:30.745Z,93945.34
2023-01-18T00:21:00.740Z,93943.31
2023-01-18T00:23:27.343Z,93948.84
2023-01-18T00:26:05.111Z,93941.13
2023-01-18T00:28:31.883Z,93944.53
2023-01-18T00:30:58.256Z,93934.03
2023-01-18T00:33:24.624Z,93932.84
2023-01-18T00:35:57.187Z,93931.16
2023-01-18T00:38:25.138Z,93938.56
2023-01-18T00:40:51.857Z,93936.25
2023-01-18T00:43:36.803Z,93937.59
2023-01-18T00:46:03.222Z,93940.34
2023-01-18T00:48:29.911Z,93944.19
2023-01-18T00:50:56.440Z,93937.94
2023-01-18T00:53:22.894Z,93931.72
2023-01-18T00:55:49.347Z,93933.13
2023-01-18T00:58:15.713Z,93936.25
2023-01-18T01:00:43.168Z,93941.81
2023-01-18T01:03:09.521Z,93939.78
2023-01-18T01:05:55.895Z,93937.72
2023-01-18T01:08:23.572Z,93941.97
2023-01-18T01:10:51.499Z,93959.34
2023-01-18T01:13:37.869Z,93954.78
2023-01-18T01:16:27.045Z,93945.69
2023-01-18T01:19:12.195Z,93942.53
2023-01-18T01:21:57.695Z,93942.97
2023-01-18T01:24:43.570Z,93945.31
2023-01-18T01:27:11.203Z,93942.72
2023-01-18T01:29:37.880Z,93937.88
2023-01-18T01:32:04.964Z,93940.03
2023-01-18T01:34:31.851Z,93932.63
2023-01-18T01:36:58.374Z,93941.91
2023-01-18T01:39:25.036Z,93942.44
2023-01-18T01:41:51.489Z,93942.75
2023-01-18T01:44:18.005Z,93931.25
2023-01-18T01:46:58.949Z,93938.19
2023-01-18T01:49:28.431Z,93938.06
2023-01-18T01:51:57.044Z,93942.69
2023-01-18T01:54:23.364Z,93939.38
2023-01-18T01:56:52.163Z,93944.72
2023-01-18T01:59:18.926Z,93932.44
2023-01-18T02:01:46.331Z,93938.84
2023-01-18T02:04:12.827Z,93943.00
2023-01-18T02:06:39.706Z,93940.28
2023-01-18T02:09:07.663Z,93941.13
2023-01-18T02:11:34.228Z,93934.38
2023-01-18T02:14:02.635Z,93934.38
2023-01-18T02:16:37.861Z,93941.28
2023-01-18T02:19:04.295Z,93947.13
2023-01-18T02:21:36.838Z,93945.16
2023-01-18T02:24:24.908Z,93952.44
2023-01-18T02:26:59.699Z,93946.84
2023-01-18T02:29:28.768Z,93949.81
2023-01-18T02:32:18.155Z,93946.91
2023-01-18T02:34:47.335Z,93943.34
2023-01-18T02:37:16.393Z,93949.13
2023-01-18T02:39:54.595Z,93950.91
2023-01-18T02:42:42.493Z,93951.16
2023-01-18T02:45:46.733Z,93949.06
2023-01-18T02:48:14.311Z,93945.47
2023-01-18T02:50:40.754Z,93944.56
2023-01-18T02:53:07.074Z,93939.81
2023-01-18T02:55:48.181Z,93949.88
2023-01-18T02:58:17.893Z,93951.53
2023-01-18T03:00:49.894Z,93946.97
2023-01-18T03:03:17.192Z,93945.97
2023-01-18T03:05:44.075Z,93946.34
2023-01-18T03:08:17.989Z,93948.47
2023-01-18T03:10:50.386Z,93939.53
2023-01-18T03:13:21.203Z,93950.34
2023-01-18T03:15:47.549Z,93952.53
2023-01-18T03:18:22.095Z,93952.94
2023-01-18T03:20:52.487Z,93949.66
2023-01-18T03:23:38.145Z,93951.88
2023-01-18T03:26:18.264Z,93954.97
2023-01-18T03:29:04.369Z,93963.97
2023-01-18T03:31:56.979Z,93965.75
2023-01-18T03:34:33.575Z,93967.75
2023-01-18T03:37:02.824Z,93964.63
2023-01-18T03:39:32.387Z,93965.69
2023-01-18T03:42:00.654Z,93963.47
2023-01-18T03:44:38.443Z,93961.47
2023-01-18T03:47:06.117Z,93970.84
2023-01-18T03:49:38.603Z,93972.56
2023-01-18T03:52:23.617Z,93968.03
2023-01-18T03:54:52.707Z,93973.44
2023-01-18T03:57:40.408Z,93974.63
2023-01-18T04:00:07.938Z,93975.72
2023-01-18T04:02:34.364Z,93974.22
2023-01-18T04:05:03.645Z,93980.28
2023-01-18T04:07:31.714Z,93985.50
2023-01-18T04:09:58.591Z,93985.38
2023-01-18T04:12:25.058Z,93987.59
2023-01-18T04:14:51.479Z,93996.28
2023-01-18T04:17:18.237Z,93995.59
2023-01-18T04:19:44.673Z,93993.88
2023-01-18T04:22:11.074Z,94001.31
2023-01-18T04:24:37.483Z,94000.00
2023-01-18T04:27:04.296Z,94001.00
2023-01-18T04:29:30.747Z,94008.41
2023-01-18T04:31:57.072Z,94008.84
2023-01-18T04:34:23.874Z,94013.25
2023-01-18T04:36:50.535Z,94010.00
2023-01-18T04:39:17.026Z,94014.44
2023-01-18T04:41:43.611Z,94006.75
2023-01-18T04:44:10.149Z,94009.44
2023-01-18T04:46:38.470Z,94015.13
2023-01-18T04:49:05.824Z,94017.25
2023-01-18T04:51:32.590Z,94008.53
2023-01-18T04:53:59.321Z,94017.78
2023-01-18T04:56:25.680Z,94013.47
2023-01-18T04:58:54.869Z,94020.03
2023-01-18T05:01:25.481Z,94013.34
2023-01-18T05:03:55.186Z,94021.78
2023-01-18T05:06:21.960Z,94027.25
2023-01-18T05:08:48.289Z,94023.59
2023-01-18T05:11:19.209Z,94029.84
2023-01-18T05:13:46.046Z,94037.31
2023-01-18T05:16:16.893Z,94035.19
2023-01-18T05:18:43.829Z,94031.63
2023-01-18T05:21:10.236Z,94040.88
2023-01-18T05:23:40.225Z,94045.97
2023-01-18T05:26:14.367Z,94049.25
2023-01-18T05:28:41.375Z,94049.72
2023-01-18T05:31:07.876Z,94056.72
2023-01-18T05:33:34.311Z,94060.66
2023-01-18T05:36:00.719Z,94057.56
2023-01-18T05:38:27.034Z,94058.72
2023-01-18T05:40:54.720Z,94059.69
2023-01-18T05:43:22.079Z,94056.56
2023-01-18T05:45:48.755Z,94068.28
2023-01-18T05:48:15.446Z,94063.19
2023-01-18T05:50:43.681Z,94064.00
2023-01-18T05:53:10.634Z,94070.34
2023-01-18T05:55:37.254Z,94078.09
2023-01-18T05:58:03.594Z,94068.19
2023-01-18T06:00:29.991Z,94070.97
2023-01-18T06:02:56.690Z,94076.94
2023-01-18T06:05:24.049Z,94077.72
2023-01-18T06:07:50.651Z,94083.22
2023-01-18T06:10:17.370Z,94096.41
2023-01-18T06:12:44.667Z,94094.78
2023-01-18T06:15:11.888Z,94095.56
2023-01-18T06:17:38.778Z,94099.31
2023-01-18T06:20:06.121Z,94112.84
2023-01-18T06:22:32.712Z,94113.41
2023-01-18T06:24:59.158Z,94114.31
2023-01-18T06:27:25.635Z,94116.41
2023-01-18T06:29:52.039Z,94122.66
2023-01-18T06:32:18.394Z,94118.53
2023-01-18T06:34:44.729Z,94118.09
2023-01-18T06:37:11.079Z,94121.41
2023-01-18T06:39:37.401Z,94127.13
2023-01-18T06:42:03.884Z,94136.66
2023-01-18T06:44:30.217Z,94141.84
2023-01-18T06:46:56.591Z,94141.03
2023-01-18T06:49:22.922Z,94158.88
2023-01-18T06:51:49.255Z,94153.28
2023-01-18T06:54:16.648Z,94157.63
2023-01-18T06:56:42.987Z,94147.88
2023-01-18T06:59:09.411Z,94157.97
2023-01-18T07:01:35.912Z,94162.53
2023-01-18T07:04:02.557Z,94159.78
2023-01-18T07:06:28.920Z,94163.88
2023-01-18T07:08:55.284Z,94169.41
2023-01-18T07:11:21.617Z,94172.09
2023-01-18T07:13:49.402Z,94174.22
2023-01-18T07:16:18.622Z,94163.63
2023-01-18T07:18:46.737Z,94167.19
2023-01-18T07:21:15.140Z,94171.13
2023-01-18T07:23:42.303Z,94185.47
2023-01-18T07:26:08.919Z,94184.13
2023-01-18T07:28:36.214Z,94185.09
2023-01-18T07:31:03.359Z,94182.97
2023-01-18T07:33:30.324Z,94194.97
2023-01-18T07:35:57.363Z,94197.84
2023-01-18T07:38:24.183Z,94198.13
2023-01-18T07:40:50.611Z,94199.66
2023-01-18T07:43:17.412Z,94198.75
2023-01-18T07:45:44.121Z,94209.16
2023-01-18T07:48:10.613Z,94211.38
2023-01-18T07:50:36.999Z,94215.03
2023-01-18T07:53:12.187Z,94219.69
2023-01-18T07:55:40.698Z,94223.69
2023-01-18T07:58:07.130Z,94229.25
2023-01-18T08:00:34.763Z,94224.59
2023-01-18T08:03:01.492Z,94231.97
2023-01-18T08:05:29.674Z,94231.81
2023-01-18T08:07:56.009Z,94229.78
2023-01-18T08:10:22.510Z,94238.69
2023-01-18T08:12:49.079Z,94239.06
2023-01-18T08:15:15.643Z,94237.88
2023-01-18T08:17:43.379Z,94242.78
2023-01-18T08:20:10.214Z,94238.88
2023-01-18T08:22:36.903Z,94242.06
2023-01-18T08:25:03.821Z,94248.88
2023-01-18T08:27:31.229Z,94252.25
2023-01-18T08:29:57.565Z,94256.59
2023-01-18T08:32:25.487Z,94261.06
2023-01-18T08:34:51.846Z,94262.94
2023-01-18T08:37:18.214Z,94271.97
2023-01-18T08:39:44.691Z,94273.28
2023-01-18T08:42:11.963Z,94272.31
2023-01-18T08:44:38.323Z,94273.28
2023-01-18T08:47:04.765Z,94276.13
2023-01-18T08:49:32.895Z,94275.16
2023-01-18T08:51:59.271Z,94276.88
2023-01-18T08:54:26.059Z,94277.47
2023-01-18T08:56:52.560Z,94288.09
2023-01-18T08:59:20.090Z,94288.72
2023-01-18T09:01:46.495Z,94292.56
2023-01-18T09:04:13.759Z,94295.25
2023-01-18T09:06:40.083Z,94299.50
2023-01-18T09:09:06.517Z,94296.41
2023-01-18T09:11:33.044Z,94306.91
2023-01-18T09:14:01.740Z,94313.06
2023-01-18T09:16:28.930Z,94315.56
2023-01-18T09:18:56.653Z,94313.50
2023-01-18T09:21:23.412Z,94309.50
2023-01-18T09:23:50.046Z,94316.66
2023-01-18T09:26:17.148Z,94324.16
2023-01-18T09:28:44.827Z,94327.72
2023-01-18T09:31:12.344Z,94332.69
2023-01-18T09:33:39.695Z,94334.75
2023-01-18T09:36:09.804Z,94329.50
2023-01-18T09:38:37.185Z,94336.75
2023-01-18T09:41:06.174Z,94339.03
2023-01-18T09:43:41.089Z,94345.56
2023-01-18T09:46:17.784Z,94353.84
2023-01-18T09:48:44.732Z,94350.81
2023-01-18T09:51:22.794Z,94351.16
2023-01-18T09:53:55.253Z,94355.81
2023-01-18T09:56:24.664Z,94361.16
2023-01-18T09:59:03.701Z,94358.09
2023-01-18T10:01:32.070Z,94357.97
2023-01-18T10:04:02.199Z,94361.75
2023-01-18T10:06:31.003Z,94367.72
2023-01-18T10:09:06.223Z,94370.13
2023-01-18T10:11:37.949Z,94378.03
2023-01-18T10:14:23.231Z,94375.97
2023-01-18T10:16:55.669Z,94381.34
2023-01-18T10:19:25.399Z,94384.25
2023-01-18T10:21:58.283Z,94396.00
2023-01-18T10:24:31.041Z,94391.69
2023-01-18T10:27:03.774Z,94390.66
2023-01-18T10:29:54.580Z,94396.16
2023-01-18T10:32:23.626Z,94397.16
2023-01-18T10:34:51.710Z,94402.50
2023-01-18T10:37:26.399Z,94399.56
2023-01-18T10:40:02.683Z,94398.75
2023-01-18T10:42:46.660Z,94407.44
2023-01-18T10:45:20.443Z,94410.97
2023-01-18T10:47:51.065Z,94414.22
2023-01-18T10:50:22.531Z,94412.94
2023-01-18T10:52:49.697Z,94424.63
2023-01-18T10:55:17.752Z,94421.53
2023-01-18T10:57:49.973Z,94425.13
2023-01-18T11:00:22.580Z,94429.84
2023-01-18T11:02:53.207Z,94437.25
2023-01-18T11:05:22.771Z,94442.59
2023-01-18T11:08:09.053Z,94444.13
2023-01-18T11:10:37.992Z,94444.13
2023-01-18T11:13:22.693Z,94446.97
2023-01-18T11:15:52.019Z,94446.97
2023-01-18T11:18:26.507Z,94451.06
2023-01-18T11:20:55.372Z,94452.59
2023-01-18T11:23:25.329Z,94453.03
2023-01-18T11:25:55.913Z,94452.75
2023-01-18T11:28:24.510Z,94448.78
2023-01-18T11:30:52.723Z,94458.31
2023-01-18T11:33:20.296Z,94465.78
2023-01-18T11:35:46.956Z,94464.69
2023-01-18T11:38:41.072Z,94466.44
2023-01-18T11:41:13.674Z,94474.41
2023-01-18T11:43:42.479Z,94475.63
2023-01-18T11:46:11.013Z,94476.44
2023-01-18T11:48:57.731Z,94480.97
2023-01-18T11:51:30.992Z,94473.41
2023-01-18T11:54:00.504Z,94486.69
2023-01-18T11:56:35.567Z,94482.25
2023-01-18T11:59:03.509Z,94487.59
2023-01-18T12:01:51.319Z,94493.88
2023-01-18T12:04:21.571Z,94495.81
2023-01-18T12:06:54.746Z,94504.03
2023-01-18T12:09:31.065Z,94504.22
2023-01-18T12:12:06.518Z,94511.88
2023-01-18T12:14:46.509Z,94519.31
2023-01-18T12:17:25.933Z,94525.66
2023-01-18T12:19:55.081Z,94527.78
2023-01-18T12:22:22.175Z,94527.41
2023-01-18T12:25:01.607Z,94527.78
2023-01-18T12:27:43.902Z,94536.34
2023-01-18T12:30:14.130Z,94533.09
2023-01-18T12:32:52.638Z,94535.56
2023-01-18T12:35:28.275Z,94539.53
2023-01-18T12:37:54.862Z,94543.53
2023-01-18T12:40:50.790Z,94543.06
2023-01-18T12:43:37.827Z,94542.63
2023-01-18T12:46:11.489Z,94553.69
2023-01-18T12:48:56.417Z,94555.00
2023-01-18T12:51:24.651Z,94554.03
2023-01-18T12:53:55.637Z,94559.41
2023-01-18T12:56:28.008Z,94562.06
2023-01-18T12:58:56.824Z,94567.13
2023-01-18T13:01:25.891Z,94579.22
2023-01-18T13:03:56.641Z,94586.34
2023-01-18T13:06:23.142Z,94581.19
2023-01-18T13:08:52.534Z,94585.09
2023-01-18T13:11:24.868Z,94596.03
2023-01-18T13:13:55.170Z,94604.19
2023-01-18T13:16:45.220Z,94609.25
2023-01-18T13:19:20.519Z,94617.94
2023-01-18T13:22:07.094Z,94623.06
2023-01-18T13:24:40.851Z,94630.91
2023-01-18T13:27:11.905Z,94622.50
2023-01-18T13:29:39.371Z,94627.78
2023-01-18T13:32:28.043Z,94637.44
2023-01-18T13:35:20.646Z,94648.22
2023-01-18T13:38:09.545Z,94653.69
2023-01-18T13:40:39.382Z,94661.78
2023-01-18T13:43:06.408Z,94672.34
2023-01-18T13:45:32.840Z,94674.34
2023-01-18T13:48:04.936Z,94680.34
2023-01-18T13:50:31.531Z,94680.25
2023-01-18T13:53:14.317Z,94683.75
2023-01-18T13:56:08.725Z,94685.44
2023-01-18T13:58:37.655Z,94698.38
2023-01-18T14:01:06.570Z,94698.38
2023-01-18T14:03:34.446Z,94707.34
2023-01-18T14:06:08.954Z,94712.28
2023-01-18T14:08:39.849Z,94722.66
2023-01-18T14:11:08.110Z,94723.63
2023-01-18T14:13:48.150Z,94731.09
2023-01-18T14:16:17.439Z,94737.09
2023-01-18T14:18:58.661Z,94741.75
2023-01-18T14:21:44.744Z,94748.69
2023-01-18T14:24:27.305Z,94751.72
2023-01-18T14:26:54.640Z,94766.97
2023-01-18T14:29:39.532Z,94765.38
2023-01-18T14:32:06.996Z,94773.06
2023-01-18T14:34:36.084Z,94774.38
2023-01-18T14:37:02.832Z,94773.06
2023-01-18T14:39:30.231Z,94783.28
2023-01-18T14:41:58.433Z,94786.00
2023-01-18T14:44:25.712Z,94798.47
2023-01-18T14:46:53.881Z,94801.22
2023-01-18T14:49:40.401Z,94801.41
2023-01-18T14:52:08.626Z,94808.81
2023-01-18T14:54:35.211Z,94809.94
2023-01-18T14:57:04.501Z,94814.81
2023-01-18T14:59:32.046Z,94818.34
2023-01-18T15:02:18.965Z,94827.56
2023-01-18T15:04:47.403Z,94828.88
2023-01-18T15:07:17.531Z,94833.53
2023-01-18T15:09:45.545Z,94840.00
2023-01-18T15:12:14.009Z,94841.47
2023-01-18T15:14:44.119Z,94846.78
2023-01-18T15:17:12.603Z,94853.91
2023-01-18T15:19:40.621Z,94858.41
2023-01-18T15:22:09.840Z,94863.28
2023-01-18T15:24:40.704Z,94862.31
2023-01-18T15:27:12.173Z,94865.53
2023-01-18T15:29:38.962Z,94872.66
2023-01-18T15:32:07.917Z,94871.81
2023-01-18T15:34:36.623Z,94877.00
2023-01-18T15:37:05.471Z,94888.00
2023-01-18T15:39:35.369Z,94895.28
2023-01-18T15:42:06.445Z,94898.19
2023-01-18T15:44:35.840Z,94898.34
2023-01-18T15:47:12.753Z,94910.16
2023-01-18T15:49:42.420Z,94902.72
2023-01-18T15:52:08.797Z,94910.16
2023-01-18T15:54:35.164Z,94916.78
2023-01-18T15:57:13.315Z,94921.28
2023-01-18T15:59:41.203Z,94927.59
2023-01-18T16:02:15.691Z,94933.44
2023-01-18T16:04:42.061Z,94939.91
2023-01-18T16:07:27.281Z,94939.09
2023-01-18T16:10:11.973Z,94942.81
2023-01-18T16:12:38.395Z,94948.59
2023-01-18T16:15:04.954Z,94954.44
2023-01-18T16:17:31.926Z,94969.78
2023-01-18T16:19:59.606Z,94970.75
2023-01-18T16:22:28.154Z,94978.41
2023-01-18T16:24:57.648Z,94986.47
2023-01-18T16:27:25.124Z,94987.91
2023-01-18T16:29:55.992Z,94993.91
2023-01-18T16:32:25.445Z,94992.28
2023-01-18T16:34:52.659Z,94993.91
2023-01-18T16:37:19.188Z,95009.91
2023-01-18T16:39:50.849Z,95009.09
2023-01-18T16:42:19.813Z,95017.66
2023-01-18T16:44:48.217Z,95018.47
2023-01-18T16:47:16.371Z,95029.63
2023-01-18T16:49:44.130Z,95025.44
2023-01-18T16:52:13.839Z,95034.66
2023-01-18T16:54:42.489Z,95035.63
2023-01-18T16:57:16.570Z,95032.97
2023-01-18T16:59:43.686Z,95036.22
2023-01-18T17:02:10.129Z,95040.25
2023-01-18T17:04:36.633Z,95036.22
2023-01-18T17:07:04.025Z,95046.25
2023-01-18T17:09:32.466Z,95045.44
2023-01-18T17:12:01.139Z,95052.03
2023-01-18T17:14:27.479Z,95053.81
2023-01-18T17:16:54.478Z,95064.16
2023-01-18T17:19:21.958Z,95068.06
2023-01-18T17:21:49.093Z,95073.84
2023-01-18T17:24:16.118Z,95086.53
2023-01-18T17:26:42.939Z,95083.69
2023-01-18T17:29:13.327Z,95092.72
2023-01-18T17:31:51.412Z,95094.47
2023-01-18T17:34:23.309Z,95097.75
2023-01-18T17:36:52.319Z,95097.44
2023-01-18T17:39:20.094Z,95097.88
2023-01-18T17:41:46.633Z,95099.53
2023-01-18T17:44:13.171Z,95107.59
2023-01-18T17:46:39.518Z,95113.41
2023-01-18T17:49:05.963Z,95124.38
2023-01-18T17:51:35.392Z,95125.97
2023-01-18T17:54:03.570Z,95136.03
2023-01-18T17:56:30.259Z,95140.81
2023-01-18T17:58:56.611Z,95151.53
2023-01-18T18:01:23.306Z,95156.56
2023-01-18T18:03:50.908Z,95161.88
2023-01-18T18:06:30.116Z,95164.47
2023-01-18T18:09:03.728Z,95169.34
2023-01-18T18:11:30.177Z,95176.34
2023-01-18T18:13:58.768Z,95183.06
2023-01-18T18:16:25.739Z,95183.50
2023-01-18T18:18:52.163Z,95188.31
2023-01-18T18:21:18.856Z,95188.66
2023-01-18T18:23:45.811Z,95192.91
2023-01-18T18:26:12.200Z,95194.81
2023-01-18T18:28:38.853Z,95208.56
2023-01-18T18:31:05.337Z,95207.69
2023-01-18T18:33:34.604Z,95218.78
2023-01-18T18:36:01.370Z,95220.94
2023-01-18T18:38:27.803Z,95236.19
2023-01-18T18:40:54.709Z,95232.88
2023-01-18T18:43:21.479Z,95245.53
2023-01-18T18:45:47.844Z,95246.66
2023-01-18T18:48:14.318Z,95255.75
2023-01-18T18:50:41.150Z,95256.22
2023-01-18T18:53:07.944Z,95259.47
2023-01-18T18:55:34.268Z,95263.81
2023-01-18T18:58:00.966Z,95265.44
2023-01-18T19:00:27.433Z,95271.28
2023-01-18T19:03:04.109Z,95271.28
2023-01-18T19:05:31.246Z,95273.56
2023-01-18T19:07:57.911Z,95272.47
2023-01-18T19:10:27.430Z,95286.44
2023-01-18T19:12:54.717Z,95282.88
2023-01-18T19:15:21.505Z,95301.03
2023-01-18T19:17:51.933Z,95305.19
2023-01-18T19:20:19.797Z,95314.88
2023-01-18T19:22:50.220Z,95319.28
2023-01-18T19:25:17.013Z,95316.94
2023-01-18T19:27:43.460Z,95326.91
2023-01-18T19:30:18.540Z,95321.16
2023-01-18T19:32:46.043Z,95325.84
2023-01-18T19:35:12.743Z,95329.69
2023-01-18T19:37:40.344Z,95334.28
2023-01-18T19:40:08.214Z,95339.16
2023-01-18T19:42:34.761Z,95337.16
2023-01-18T19:45:03.986Z,95340.56
2023-01-18T19:47:31.219Z,95346.75
2023-01-18T19:49:57.881Z,95351.84
2023-01-18T19:52:24.686Z,95363.09
2023-01-18T19:54:51.133Z,95363.06
2023-01-18T19:57:17.454Z,95367.66
2023-01-18T19:59:43.832Z,95367.94
2023-01-18T20:02:16.164Z,95369.44
2023-01-18T20:04:43.427Z,95383.31
2023-01-18T20:07:10.973Z,95376.59
2023-01-18T20:09:43.136Z,95391.06
2023-01-18T20:12:12.449Z,95390.84
2023-01-18T20:14:41.537Z,95399.28
2023-01-18T20:17:12.123Z,95403.72
2023-01-18T20:19:41.944Z,95409.91
2023-01-18T20:22:08.347Z,95418.91
2023-01-18T20:24:34.686Z,95422.44
2023-01-18T20:27:14.935Z,95428.97
2023-01-18T20:29:42.119Z,95421.56
2023-01-18T20:32:15.517Z,95425.25
2023-01-18T20:34:44.680Z,95429.41
2023-01-18T20:37:11.890Z,95426.59
2023-01-18T20:39:38.689Z,95425.13
2023-01-18T20:42:05.303Z,95427.50
2023-01-18T20:44:31.662Z,95423.78
2023-01-18T20:46:58.051Z,95426.31
2023-01-18T20:49:33.198Z,95436.53
2023-01-18T20:52:04.924Z,95428.44
2023-01-18T20:54:31.248Z,95441.84
2023-01-18T20:56:58.791Z,95441.09
2023-01-18T20:59:25.408Z,95447.06
2023-01-18T21:01:52.943Z,95447.38
2023-01-18T21:04:20.706Z,95439.16
2023-01-18T21:06:49.766Z,95445.25
2023-01-18T21:09:16.545Z,95446.31
2023-01-18T21:11:42.874Z,95446.75
2023-01-18T21:14:09.412Z,95452.22
2023-01-18T21:16:36.441Z,95446.97
2023-01-18T21:19:03.075Z,95458.16
2023-01-18T21:21:31.679Z,95452.41
2023-01-18T21:23:58.510Z,95461.41
2023-01-18T21:26:24.903Z,95470.81
2023-01-18T21:28:51.475Z,95465.63
2023-01-18T21:31:17.950Z,95474.19
2023-01-18T21:33:44.347Z,95478.63
2023-01-18T21:36:14.628Z,95487.72
2023-01-18T21:38:41.411Z,95495.28
2023-01-18T21:41:27.684Z,95494.44
2023-01-18T21:44:12.951Z,95496.72
2023-01-18T21:46:44.296Z,95502.56
2023-01-18T21:49:39.774Z,95501.88
2023-01-18T21:52:35.548Z,95506.97
2023-01-18T21:55:01.973Z,95514.75
2023-01-18T21:57:28.317Z,95505.84
2023-01-18T21:59:54.693Z,95516.31
2023-01-18T22:02:22.468Z,95519.31
2023-01-18T22:05:00.914Z,95534.84
2023-01-18T22:07:28.203Z,95529.81
2023-01-18T22:10:04.633Z,95536.59
2023-01-18T22:12:34.779Z,95546.88
2023-01-18T22:15:02.092Z,95546.34
2023-01-18T22:17:28.720Z,95544.59
2023-01-18T22:19:55.360Z,95551.72
2023-01-18T22:22:21.729Z,95553.56
2023-01-18T22:24:48.118Z,95561.47
2023-01-18T22:27:14.455Z,95566.53
2023-01-18T22:29:40.787Z,95567.72
2023-01-18T22:32:07.195Z,95567.84
2023-01-18T22:34:33.939Z,95576.56
2023-01-18T22:37:00.470Z,95571.22
2023-01-18T22:39:26.808Z,95576.28
2023-01-18T22:41:53.164Z,95575.22
2023-01-18T22:44:19.551Z,95572.75
2023-01-18T22:46:46.989Z,95576.00
2023-01-18T22:49:13.378Z,95583.47
2023-01-18T22:51:39.701Z,95588.25
2023-01-18T22:54:06.278Z,95586.72
2023-01-18T22:56:32.894Z,95594.72
2023-01-18T22:59:00.458Z,95589.44
2023-01-18T23:01:30.917Z,95596.78
2023-01-18T23:03:58.630Z,95595.03
2023-01-18T23:06:25.093Z,95594.91
2023-01-18T23:08:52.047Z,95600.72
2023-01-18T23:11:20.862Z,95604.41
2023-01-18T23:14:07.559Z,95601.78
2023-01-18T23:16:53.046Z,95600.72
2023-01-18T23:19:19.799Z,95601.16
2023-01-18T23:21:46.148Z,95612.72
2023-01-18T23:24:12.582Z,95615.56
2023-01-18T23:26:46.340Z,95604.97
2023-01-18T23:29:12.774Z,95606.19
2023-01-18T23:31:39.368Z,95611.66
2023-01-18T23:34:05.704Z,95609.06
2023-01-18T23:36:32.082Z,95611.63
2023-01-18T23:39:17.013Z,95605.63
2023-01-18T23:42:02.044Z,95607.53
2023-01-18T23:44:47.208Z,95603.44
2023-01-18T23:47:32.234Z,95601.97
2023-01-18T23:50:17.064Z,95594.78
2023-01-18T23:53:04.193Z,95602.66
2023-01-18T23:55:30.633Z,95601.28
2023-01-18T23:57:56.982Z,95611.38
